Saturday, January 19, 2019, 6:48 PM CST
Back to Local

KDKB, De Kalb, De Kalb Taylor Municipal Airport

Location: Dekalb, IL, United States Lat: 41.932
Local Time: 6:48 PM CST ( 0:48 GMT) Lon: -88.708
Time Zone: US/Central Elev: 915 ft

Show me the last for .
Show Decoded

2019-01-19 18:15 METAR KDKB 200015Z AUTO 35020G25KT 10SM -SN OVC023 M09/M11 A3006 RMK AO2
                 T10871115 =
2019-01-19 17:55 METAR KDKB 192355Z AUTO 36018G29KT 7SM -SN OVC023 M09/M11 A3006 RMK AO2
                 T10861113 11058 21086 =
2019-01-19 17:35 METAR KDKB 192335Z AUTO 35020G25KT 7SM -SN OVC021 M08/M11 A3006 RMK AO2
                 T10821109 =
2019-01-19 17:15 METAR KDKB 192315Z AUTO 36022G27KT 7SM -SN OVC019 M08/M11 A3005 RMK AO2
                 T10801106 =
2019-01-19 16:55 METAR KDKB 192255Z AUTO 35019G22KT 7SM -SN OVC019 M08/M10 A3005 RMK AO2
                 T10781102 =
2019-01-19 16:35 METAR KDKB 192235Z AUTO 36020G26KT 5SM -SN OVC017 M07/M10 A3004 RMK AO2
                 T10751098 =
2019-01-19 16:15 METAR KDKB 192215Z AUTO 36018G25KT 7SM -SN OVC015 M07/M09 A3004 RMK AO2
                 T10711095 =
2019-01-19 15:55 METAR KDKB 192155Z AUTO 35017G21KT 10SM -SN OVC015 M07/M09 A3003 RMK AO2
                 T10681091 =
2019-01-19 15:35 METAR KDKB 192135Z AUTO 36017G21KT 10SM -SN OVC015 M06/M09 A3001 RMK AO2
                 T10651086 =
2019-01-19 15:15 METAR KDKB 192115Z AUTO 36020G24KT 10SM OVC015 M06/M09 A3001 RMK AO2 T10621086 =
2019-01-19 14:55 METAR KDKB 192055Z AUTO 01020G26KT 7SM OVC015 M06/M08 A3000 RMK AO2 T10601083 =
2019-01-19 14:35 METAR KDKB 192035Z AUTO 01021G26KT 7SM OVC015 M06/M08 A3000 RMK AO2 T10601084 =
2019-01-19 14:15 METAR KDKB 192015Z AUTO 01020G24KT 10SM OVC015 M06/M08 A3000 RMK AO2 T10601083 =
2019-01-19 13:55 METAR KDKB 191955Z AUTO 01021KT 10SM OVC015 M06/M08 A3000 RMK AO2 T10601082 =
2019-01-19 13:35 METAR KDKB 191935Z AUTO 01018G22KT 10SM OVC015 M06/M08 A3000 RMK AO2 T10581081 =
2019-01-19 13:15 METAR KDKB 191915Z AUTO 01021KT 10SM OVC013 M06/M08 A3001 RMK AO2 T10581081 =
2019-01-19 12:55 METAR KDKB 191855Z AUTO 01020G24KT 10SM OVC013 M06/M08 A3000 RMK AO2 T10601082 =
2019-01-19 12:35 METAR KDKB 191835Z AUTO 01019G26KT 7SM OVC013 M06/M08 A3002 RMK AO2 T10611084 =
2019-01-19 12:15 METAR KDKB 191815Z AUTO 02019G23KT 10SM OVC013 M06/M08 A3002 RMK AO2 T10621085 =
2019-01-19 11:55 METAR KDKB 191755Z AUTO 02018G25KT 7SM OVC013 M06/M08 A3004 RMK AO2 T10631085
                 11040 21073 =
2019-01-19 11:35 METAR KDKB 191735Z AUTO 01019G25KT 10SM OVC013 M06/M08 A3004 RMK AO2 T10631085 =
2019-01-19 11:15 METAR KDKB 191715Z AUTO 01017G25KT 7SM BKN011 OVC017 M07/M09 A3004 RMK AO2
                 T10661086 =
2019-01-19 10:55 METAR KDKB 191655Z AUTO 01021G26KT 5SM BR OVC011 M07/M09 A3006 RMK AO2 T10701088
                 =
2019-01-19 10:35 METAR KDKB 191635Z AUTO 01021G26KT 5SM BR OVC011 M07/M09 A3006 RMK AO2 T10721090
                 =
2019-01-19 10:15 METAR KDKB 191615Z AUTO 01021G25KT 7SM OVC011 M07/M09 A3006 RMK AO2 T10701088 =
2019-01-19 09:55 METAR KDKB 191555Z AUTO 01018G22KT 10SM OVC016 M07/M09 A3005 RMK AO2 T10701089 =
2019-01-19 09:35 METAR KDKB 191535Z AUTO 01016KT 7SM UP BKN018 BKN100 M07/M09 A3005 RMK AO2
                 T10731090 =
2019-01-19 09:15 METAR KDKB 191515Z AUTO 01017KT 5SM BR BKN018 M07/M08 A3004 RMK AO2 T10701085 =
2019-01-19 08:55 METAR KDKB 191455Z AUTO 03015G20KT 7SM BKN018 BKN026 BKN034 M07/M08 A3006 RMK
                 AO2 T10681083 =
2019-01-19 08:35 METAR KDKB 191435Z AUTO 01019G22KT 2SM -SN BKN021 OVC026 M06/M08 A3004 RMK AO2
                 T10651080 =
2019-01-19 08:15 METAR KDKB 191415Z AUTO 02017G23KT 1SM -SN OVC017 M06/M07 A3003 RMK AO2
                 T10571068 =
2019-01-19 07:55 METAR KDKB 191355Z AUTO 01020G23KT 3/4SM -SN OVC015 M06/M07 A3003 RMK AO2
                 T10581070 =
2019-01-19 07:35 METAR KDKB 191335Z AUTO 02017G23KT 1 3/4SM UP BKN009 OVC013 M05/M07 A3003 RMK
                 AO2 T10551066 =
2019-01-19 07:15 METAR KDKB 191315Z AUTO 02017G24KT 2 1/2SM -SN BKN009 BKN012 OVC024 M04/M05
                 A3003 RMK AO2 T10411050 =
2019-01-19 06:55 METAR KDKB 191255Z AUTO 03018KT 2 1/2SM UP SCT007 BKN012 OVC024 M04/M05 A3003
                 RMK AO2 T10401049 =
2019-01-19 06:35 METAR KDKB 191235Z AUTO 02017KT 2SM -SN SCT007 BKN014 OVC024 M04/M05 A3003 RMK
                 AO2 T10401048 =
2019-01-19 06:15 METAR KDKB 191215Z AUTO 02019KT 1 1/2SM -SN BKN007 OVC017 M04/M05 A3003 RMK AO2
                 T10401047 =
2019-01-19 05:55 METAR KDKB 191155Z AUTO 02017G24KT 1 1/4SM -SN SCT007 OVC013 M04/M05 A3003 RMK
                 AO2 70001 T10401046 11030 21040 =
2019-01-19 05:30 METAR KDKB 191130Z AUTO 02017KT 1 1/4SM -SN OVC008 M04/M04 A3002 RMK AO2
                 T10381045 =
2019-01-19 05:15 METAR KDKB 191115Z AUTO 02016KT 2SM -SN BKN008 OVC017 M04/M04 A3002 RMK AO2
                 T10361043 =
2019-01-19 04:55 METAR KDKB 191055Z AUTO 02017G20KT 1 1/2SM -SN BKN006 OVC017 M03/M04 A3002 RMK
                 AO2 T10341040 =
2019-01-19 04:35 METAR KDKB 191035Z AUTO 03017KT 1 3/4SM -SN SCT006 OVC015 M03/M04 A3002 RMK AO2
                 T10321037 =
2019-01-19 04:15 METAR KDKB 191015Z AUTO 03015KT 1 3/4SM -SN SCT006 OVC013 M03/M04 A3002 RMK AO2
                 T10331037 =
2019-01-19 03:55 METAR KDKB 190955Z AUTO 03016KT 1 1/2SM -SN SCT006 OVC011 M03/M04 A3002 RMK AO2
                 T10331037 =
2019-01-19 03:35 METAR KDKB 190935Z AUTO 03015KT 2SM -SN SCT006 OVC011 M03/M04 A3002 RMK AO2
                 T10321038 =
2019-01-19 03:15 METAR KDKB 190915Z AUTO 04015KT 3SM -SN OVC011 M03/M04 A3003 RMK AO2 T10321038 =
2019-01-19 02:55 METAR KDKB 190855Z AUTO 05015KT 3SM -SN BKN006 OVC011 M03/M04 A3004 RMK AO2
                 T10321037 =
2019-01-19 02:30 METAR KDKB 190830Z AUTO 05013KT 2 1/2SM -SN BKN006 BKN011 OVC016 M03/M04 A3004
                 RMK AO2 T10301036 =
2019-01-19 02:15 METAR KDKB 190815Z AUTO 06016KT 2 1/2SM -SN BKN006 BKN010 OVC016 M03/M04 A3004
                 RMK AO2 T10321036 =
2019-01-19 01:55 METAR KDKB 190755Z AUTO 04012KT 2SM -SN OVC008 M04/M04 A3004 RMK AO2 T10361040 =
2019-01-19 01:35 METAR KDKB 190735Z AUTO 04013KT 2SM -SN OVC010 M04/M04 A3005 RMK AO2 T10371041 =
2019-01-19 01:15 METAR KDKB 190715Z AUTO 04011KT 2SM -SN OVC010 M04/M04 A3006 RMK AO2 T10361041 =
2019-01-19 00:55 METAR KDKB 190655Z AUTO 04013KT 1 3/4SM -SN OVC008 M04/M04 A3006 RMK AO2
                 T10361041 =
2019-01-19 00:35 METAR KDKB 190635Z AUTO 05013KT 2SM -SN SCT008 OVC014 M03/M04 A3007 RMK AO2
                 T10351041 =
2019-01-19 00:15 METAR KDKB 190615Z AUTO 05014KT 3SM -SN SCT008 BKN020 OVC029 M03/M04 A3007 RMK
                 AO2 T10351041 =
2019-01-18 23:55 METAR KDKB 190555Z AUTO 06014KT 3SM UP SCT008 OVC033 M03/M04 A3008 RMK AO2 60001
                 T10351041 11031 21037 410101037 =
2019-01-18 23:35 METAR KDKB 190535Z AUTO 07012KT 2 1/2SM -SN SCT008 SCT011 OVC033 M03/M04 A3009
                 RMK AO2 T10351042 =
2019-01-18 23:15 METAR KDKB 190515Z AUTO 06011KT 1 3/4SM -SN OVC008 M03/M04 A3011 RMK AO2 LTG
                 DSNT S T10351041 =
2019-01-18 22:55 METAR KDKB 190455Z AUTO 06012KT 1 1/2SM -SN OVC010 M04/M04 A3009 RMK AO2 LTG
                 DSNT S P0001 T10361042 =
2019-01-18 22:35 METAR KDKB 190435Z AUTO 05016G19KT 1 3/4SM -SN OVC010 M04/M04 A3008 RMK AO2 LTG
                 DSNT S T10361043 =
2019-01-18 22:15 METAR KDKB 190415Z AUTO 05014KT 1 3/4SM -SN SCT006 OVC012 M04/M04 A3009 RMK AO2
                 T10371042 =
2019-01-18 21:55 METAR KDKB 190355Z AUTO 05014KT 2 1/2SM -SN SCT006 OVC012 M03/M04 A3009 RMK AO2
                 T10351040 =
2019-01-18 21:35 METAR KDKB 190335Z AUTO 05013KT 2 1/2SM -SN OVC009 M03/M04 A3010 RMK AO2
                 T10351040 =
2019-01-18 21:15 METAR KDKB 190315Z AUTO 05011KT 1 1/2SM -SN OVC009 M03/M04 A3011 RMK AO2
                 T10331038 =
2019-01-18 20:55 METAR KDKB 190255Z AUTO 06010KT 1 3/4SM -SN OVC011 M03/M04 A3012 RMK AO2
                 T10331040 =
2019-01-18 20:35 METAR KDKB 190235Z AUTO 06010KT 5SM -SN OVC011 M03/M04 A3012 RMK AO2 T10311045 =
2019-01-18 20:15 METAR KDKB 190215Z AUTO 06008KT 10SM OVC011 M03/M05 A3013 RMK AO2 T10321048 =
2019-01-18 19:55 METAR KDKB 190155Z AUTO 06011KT 10SM OVC011 M03/M05 A3012 RMK AO2 T10351050 =
2019-01-18 19:35 METAR KDKB 190135Z AUTO 06013KT 10SM OVC013 M03/M05 A3011 RMK AO2 T10351055 =
2019-01-18 19:15 METAR KDKB 190115Z AUTO 06013KT 10SM OVC015 M04/M06 A3011 RMK AO2 T10361057 =
2019-01-18 18:55 METAR KDKB 190055Z AUTO 06012KT 10SM OVC015 M04/M06 A3011 RMK AO2 T10371059 =

Support USWX by starting your Amazon purchase here.